createdAt,value
2023-05-14T09:16:09.493Z,100476.23
2023-05-14T09:24:32.559Z,100468.64
2023-05-14T09:32:55.800Z,100474.83
2023-05-14T09:41:19.404Z,100475.23
2023-05-14T09:49:42.436Z,100461.39
2023-05-14T09:58:06.197Z,100455.34
2023-05-14T10:06:34.232Z,100446.36
2023-05-14T10:15:01.348Z,100431.30
2023-05-14T10:23:24.748Z,100426.36
2023-05-14T10:31:49.533Z,100427.40
2023-05-14T10:40:14.991Z,100420.32
2023-05-14T10:48:42.317Z,100402.20
2023-05-14T10:57:11.514Z,100392.92
2023-05-14T11:05:37.397Z,100366.89
2023-05-14T11:14:28.321Z,100349.84
2023-05-14T11:23:06.079Z,100329.17
2023-05-14T11:31:59.018Z,100320.23
2023-05-14T11:40:35.599Z,100307.02
2023-05-14T11:49:11.445Z,100300.36
2023-05-14T11:57:50.036Z,100286.57
2023-05-14T12:06:21.995Z,100278.14
2023-05-14T12:14:51.178Z,100258.97
2023-05-14T12:23:14.530Z,100256.06
2023-05-14T12:31:38.284Z,100245.48
2023-05-14T12:40:01.279Z,100242.66
2023-05-14T12:48:24.226Z,100231.80
2023-05-14T12:56:47.162Z,100223.65
2023-05-14T13:05:10.392Z,100217.80
2023-05-14T13:13:33.271Z,100211.68
2023-05-14T13:21:57.394Z,100194.41
2023-05-14T13:30:21.421Z,100193.53
2023-05-14T13:38:46.416Z,100186.98
2023-05-14T13:47:09.720Z,100172.82
2023-05-14T13:55:32.951Z,100169.13
2023-05-14T14:03:56.147Z,100155.95
2023-05-14T14:12:19.164Z,100149.97
2023-05-14T14:20:42.275Z,100143.05
2023-05-14T14:29:05.273Z,100129.55
2023-05-14T14:37:29.107Z,100119.34
2023-05-14T14:45:52.540Z,100115.64
2023-05-14T14:54:15.642Z,100104.90
2023-05-14T15:02:42.064Z,100096.38
2023-05-14T15:11:06.823Z,100088.44
2023-05-14T15:19:30.386Z,100078.16
2023-05-14T15:27:53.359Z,100082.33
2023-05-14T15:36:16.340Z,100075.56
2023-05-14T15:44:39.523Z,100076.88
2023-05-14T15:53:03.237Z,100066.95
2023-05-14T16:01:26.381Z,100060.54
2023-05-14T16:09:49.296Z,100050.41
2023-05-14T16:18:12.422Z,100038.09
2023-05-14T16:26:35.425Z,100027.76
2023-05-14T16:34:58.329Z,100021.48
2023-05-14T16:43:21.387Z,100016.29
2023-05-14T16:51:44.403Z,100006.21
2023-05-14T17:00:09.511Z,99995.90
2023-05-14T17:08:33.752Z,99990.61
2023-05-14T17:16:56.639Z,99988.14
2023-05-14T17:25:19.564Z,99997.27
2023-05-14T17:33:42.456Z,100002.35
2023-05-14T17:42:06.467Z,99996.62
2023-05-14T17:50:29.393Z,99985.18
2023-05-14T17:58:52.382Z,99986.02
2023-05-14T18:07:15.387Z,99983.94
2023-05-14T18:15:39.018Z,99980.05
2023-05-14T18:24:02.526Z,99977.74
2023-05-14T18:32:25.955Z,99978.15
2023-05-14T18:40:49.468Z,99984.52
2023-05-14T18:49:12.450Z,99985.00
2023-05-14T18:57:37.101Z,99978.59
2023-05-14T19:06:00.047Z,99987.75
2023-05-14T19:14:23.970Z,99976.86
2023-05-14T19:22:46.904Z,99966.34
2023-05-14T19:31:09.882Z,99958.48
2023-05-14T19:39:32.898Z,99956.56
2023-05-14T19:47:56.327Z,99956.05
2023-05-14T19:56:19.382Z,99952.95
2023-05-14T20:04:43.084Z,99953.44
2023-05-14T20:13:06.092Z,99951.55
2023-05-14T20:21:29.745Z,99941.86
2023-05-14T20:29:54.136Z,99937.00
2023-05-14T20:38:19.221Z,99927.50
2023-05-14T20:46:42.261Z,99916.21
2023-05-14T20:55:07.636Z,99905.36
2023-05-14T21:03:30.773Z,99900.48
2023-05-14T21:11:54.739Z,99891.44
2023-05-14T21:20:17.822Z,99880.65
2023-05-14T21:28:40.933Z,99877.95
2023-05-14T21:37:04.402Z,99872.52
2023-05-14T21:45:27.652Z,99866.02
2023-05-14T21:53:50.860Z,99869.61
2023-05-14T22:02:13.880Z,99866.80
2023-05-14T22:10:36.855Z,99859.64
2023-05-14T22:19:00.135Z,99850.30
2023-05-14T22:27:23.410Z,99845.30
2023-05-14T22:35:46.326Z,99833.08
2023-05-14T22:44:09.368Z,99816.38
2023-05-14T22:52:32.312Z,99799.70
2023-05-14T23:00:55.295Z,99785.26
2023-05-14T23:09:18.237Z,99777.27
2023-05-14T23:17:41.969Z,99760.94
2023-05-14T23:26:05.269Z,99749.59
2023-05-14T23:34:28.495Z,99741.70
2023-05-14T23:42:51.488Z,99732.69
2023-05-14T23:51:14.564Z,99720.75
2023-05-14T23:59:39.481Z,99707.30
